sensor_id;sensor_type;location;lat;lon;timestamp;P1;durP1;ratioP1;P2;durP2;ratioP2
26014;SDS011;13793;55.388;37.844;2023-04-01T00:00:27;54.57;;;25.23;;
26014;SDS011;13793;55.388;37.844;2023-04-01T00:02:57;52.70;;;24.53;;
26014;SDS011;13793;55.388;37.844;2023-04-01T00:05:29;49.93;;;23.67;;
26014;SDS011;13793;55.388;37.844;2023-04-01T00:07:59;48.53;;;24.43;;
26014;SDS011;13793;55.388;37.844;2023-04-01T00:10:29;51.70;;;25.63;;
26014;SDS011;13793;55.388;37.844;2023-04-01T00:13:00;49.23;;;24.40;;
26014;SDS011;13793;55.388;37.844;2023-04-01T00:15:30;51.23;;;24.33;;
26014;SDS011;13793;55.388;37.844;2023-04-01T00:18:01;55.37;;;25.37;;
26014;SDS011;13793;55.388;37.844;2023-04-01T00:20:31;49.93;;;24.93;;
26014;SDS011;13793;55.388;37.844;2023-04-01T00:23:01;59.50;;;27.23;;
26014;SDS011;13793;55.388;37.844;2023-04-01T00:25:32;50.43;;;24.47;;
26014;SDS011;13793;55.388;37.844;2023-04-01T00:28:03;51.20;;;25.37;;
26014;SDS011;13793;55.388;37.844;2023-04-01T00:30:35;53.83;;;25.13;;
26014;SDS011;13793;55.388;37.844;2023-04-01T00:33:05;57.33;;;26.57;;
26014;SDS011;13793;55.388;37.844;2023-04-01T00:35:36;56.10;;;25.20;;
26014;SDS011;13793;55.388;37.844;2023-04-01T00:38:06;47.57;;;23.60;;
26014;SDS011;13793;55.388;37.844;2023-04-01T00:40:38;48.47;;;23.73;;
26014;SDS011;13793;55.388;37.844;2023-04-01T00:43:14;56.83;;;25.50;;
26014;SDS011;13793;55.388;37.844;2023-04-01T00:45:49;47.13;;;22.73;;
26014;SDS011;13793;55.388;37.844;2023-04-01T00:48:20;49.63;;;24.50;;
26014;SDS011;13793;55.388;37.844;2023-04-01T00:50:54;50.37;;;24.50;;
26014;SDS011;13793;55.388;37.844;2023-04-01T00:53:27;49.87;;;23.30;;
26014;SDS011;13793;55.388;37.844;2023-04-01T00:56:10;49.37;;;22.80;;
26014;SDS011;13793;55.388;37.844;2023-04-01T00:58:44;51.00;;;23.90;;
26014;SDS011;13793;55.388;37.844;2023-04-01T01:01:21;52.00;;;23.70;;
26014;SDS011;13793;55.388;37.844;2023-04-01T01:03:54;50.57;;;22.63;;
26014;SDS011;13793;55.388;37.844;2023-04-01T01:09:55;50.60;;;23.77;;
26014;SDS011;13793;55.388;37.844;2023-04-01T01:22:57;48.90;;;22.87;;
26014;SDS011;13793;55.388;37.844;2023-04-01T01:25:32;51.90;;;22.70;;
26014;SDS011;13793;55.388;37.844;2023-04-01T01:28:13;50.03;;;23.63;;
26014;SDS011;13793;55.388;37.844;2023-04-01T01:33:34;54.13;;;24.60;;
26014;SDS011;13793;55.388;37.844;2023-04-01T01:36:15;51.00;;;22.03;;
26014;SDS011;13793;55.388;37.844;2023-04-01T01:38:45;53.30;;;23.00;;
26014;SDS011;13793;55.388;37.844;2023-04-01T01:41:16;54.83;;;22.80;;
26014;SDS011;13793;55.388;37.844;2023-04-01T01:43:48;53.17;;;22.40;;
26014;SDS011;13793;55.388;37.844;2023-04-01T01:46:21;46.67;;;21.63;;
26014;SDS011;13793;55.388;37.844;2023-04-01T01:48:52;43.30;;;20.90;;
26014;SDS011;13793;55.388;37.844;2023-04-01T01:51:23;51.70;;;22.50;;
26014;SDS011;13793;55.388;37.844;2023-04-01T01:53:55;44.23;;;20.07;;
26014;SDS011;13793;55.388;37.844;2023-04-01T01:56:26;42.20;;;20.37;;
26014;SDS011;13793;55.388;37.844;2023-04-01T01:59:03;53.27;;;22.20;;
26014;SDS011;13793;55.388;37.844;2023-04-01T02:01:32;41.83;;;18.93;;
26014;SDS011;13793;55.388;37.844;2023-04-01T02:04:06;50.73;;;22.37;;
26014;SDS011;13793;55.388;37.844;2023-04-01T02:06:39;44.70;;;20.57;;
26014;SDS011;13793;55.388;37.844;2023-04-01T02:09:12;52.03;;;22.70;;
26014;SDS011;13793;55.388;37.844;2023-04-01T02:11:46;54.10;;;22.93;;
26014;SDS011;13793;55.388;37.844;2023-04-01T02:14:22;44.50;;;20.47;;
26014;SDS011;13793;55.388;37.844;2023-04-01T02:16:57;52.27;;;22.70;;
26014;SDS011;13793;55.388;37.844;2023-04-01T02:19:30;44.20;;;20.70;;
26014;SDS011;13793;55.388;37.844;2023-04-01T02:22:01;54.73;;;22.43;;
26014;SDS011;13793;55.388;37.844;2023-04-01T02:24:33;48.47;;;22.23;;
26014;SDS011;13793;55.388;37.844;2023-04-01T02:27:06;47.07;;;21.50;;
26014;SDS011;13793;55.388;37.844;2023-04-01T02:29:36;50.43;;;21.87;;
26014;SDS011;13793;55.388;37.844;2023-04-01T02:32:09;49.93;;;21.33;;
26014;SDS011;13793;55.388;37.844;2023-04-01T02:34:40;46.83;;;21.57;;
26014;SDS011;13793;55.388;37.844;2023-04-01T02:37:11;50.53;;;21.03;;
26014;SDS011;13793;55.388;37.844;2023-04-01T02:39:42;47.90;;;20.93;;
26014;SDS011;13793;55.388;37.844;2023-04-01T02:42:13;54.23;;;22.60;;
26014;SDS011;13793;55.388;37.844;2023-04-01T02:44:44;58.27;;;24.70;;
26014;SDS011;13793;55.388;37.844;2023-04-01T02:47:15;56.37;;;22.97;;
26014;SDS011;13793;55.388;37.844;2023-04-01T02:49:45;53.07;;;23.13;;
26014;SDS011;13793;55.388;37.844;2023-04-01T02:52:15;50.53;;;22.77;;
26014;SDS011;13793;55.388;37.844;2023-04-01T02:54:46;54.30;;;22.67;;
26014;SDS011;13793;55.388;37.844;2023-04-01T02:57:16;55.63;;;24.63;;
26014;SDS011;13793;55.388;37.844;2023-04-01T02:59:48;49.17;;;22.13;;
26014;SDS011;13793;55.388;37.844;2023-04-01T03:02:19;60.27;;;25.03;;
26014;SDS011;13793;55.388;37.844;2023-04-01T03:04:49;69.03;;;30.17;;
26014;SDS011;13793;55.388;37.844;2023-04-01T03:07:19;93.57;;;40.17;;
26014;SDS011;13793;55.388;37.844;2023-04-01T03:09:50;112.77;;;51.53;;
26014;SDS011;13793;55.388;37.844;2023-04-01T03:12:20;146.73;;;66.10;;
26014;SDS011;13793;55.388;37.844;2023-04-01T03:14:51;166.53;;;79.93;;
26014;SDS011;13793;55.388;37.844;2023-04-01T03:17:22;124.00;;;57.43;;
26014;SDS011;13793;55.388;37.844;2023-04-01T03:19:52;125.07;;;58.20;;
26014;SDS011;13793;55.388;37.844;2023-04-01T03:22:22;93.10;;;44.03;;
26014;SDS011;13793;55.388;37.844;2023-04-01T03:24:53;86.60;;;40.33;;
26014;SDS011;13793;55.388;37.844;2023-04-01T03:27:23;81.77;;;36.10;;
26014;SDS011;13793;55.388;37.844;2023-04-01T03:29:54;80.83;;;40.07;;
26014;SDS011;13793;55.388;37.844;2023-04-01T03:32:24;78.37;;;38.60;;
26014;SDS011;13793;55.388;37.844;2023-04-01T03:34:55;71.77;;;35.20;;
26014;SDS011;13793;55.388;37.844;2023-04-01T03:37:26;64.33;;;30.60;;
26014;SDS011;13793;55.388;37.844;2023-04-01T03:39:56;56.17;;;26.13;;
26014;SDS011;13793;55.388;37.844;2023-04-01T03:42:27;57.13;;;25.87;;
26014;SDS011;13793;55.388;37.844;2023-04-01T03:44:59;54.63;;;26.87;;
26014;SDS011;13793;55.388;37.844;2023-04-01T03:47:30;52.50;;;24.07;;
26014;SDS011;13793;55.388;37.844;2023-04-01T03:50:00;50.67;;;23.03;;
26014;SDS011;13793;55.388;37.844;2023-04-01T03:52:31;82.63;;;38.83;;
26014;SDS011;13793;55.388;37.844;2023-04-01T03:55:02;159.40;;;71.90;;
26014;SDS011;13793;55.388;37.844;2023-04-01T03:57:32;121.37;;;53.83;;
26014;SDS011;13793;55.388;37.844;2023-04-01T04:00:05;103.17;;;46.47;;
26014;SDS011;13793;55.388;37.844;2023-04-01T04:02:38;66.27;;;30.97;;
26014;SDS011;13793;55.388;37.844;2023-04-01T04:05:10;57.50;;;27.47;;
26014;SDS011;13793;55.388;37.844;2023-04-01T04:07:42;51.07;;;25.57;;
26014;SDS011;13793;55.388;37.844;2023-04-01T04:10:12;44.23;;;22.03;;
26014;SDS011;13793;55.388;37.844;2023-04-01T04:12:43;57.13;;;28.50;;
26014;SDS011;13793;55.388;37.844;2023-04-01T04:15:13;58.83;;;27.10;;
26014;SDS011;13793;55.388;37.844;2023-04-01T04:17:45;52.33;;;25.83;;
26014;SDS011;13793;55.388;37.844;2023-04-01T04:20:16;47.43;;;24.00;;
26014;SDS011;13793;55.388;37.844;2023-04-01T04:22:47;53.10;;;27.23;;
26014;SDS011;13793;55.388;37.844;2023-04-01T04:25:17;52.23;;;25.53;;
26014;SDS011;13793;55.388;37.844;2023-04-01T04:27:47;39.73;;;19.67;;
26014;SDS011;13793;55.388;37.844;2023-04-01T04:30:18;38.27;;;19.83;;
26014;SDS011;13793;55.388;37.844;2023-04-01T04:32:49;36.93;;;20.03;;
26014;SDS011;13793;55.388;37.844;2023-04-01T04:35:19;44.20;;;22.13;;
26014;SDS011;13793;55.388;37.844;2023-04-01T04:37:49;48.37;;;24.60;;
26014;SDS011;13793;55.388;37.844;2023-04-01T04:40:20;67.00;;;34.50;;
26014;SDS011;13793;55.388;37.844;2023-04-01T04:42:50;51.00;;;26.70;;
26014;SDS011;13793;55.388;37.844;2023-04-01T04:45:21;51.57;;;27.40;;
26014;SDS011;13793;55.388;37.844;2023-04-01T04:47:53;55.17;;;27.60;;
26014;SDS011;13793;55.388;37.844;2023-04-01T04:50:24;48.73;;;24.30;;
26014;SDS011;13793;55.388;37.844;2023-04-01T04:52:54;56.23;;;29.37;;
26014;SDS011;13793;55.388;37.844;2023-04-01T04:55:25;69.20;;;33.30;;
26014;SDS011;13793;55.388;37.844;2023-04-01T04:57:57;52.03;;;26.03;;
26014;SDS011;13793;55.388;37.844;2023-04-01T05:00:28;50.37;;;25.10;;
26014;SDS011;13793;55.388;37.844;2023-04-01T05:03:01;45.63;;;23.37;;
26014;SDS011;13793;55.388;37.844;2023-04-01T05:05:31;36.00;;;19.57;;
26014;SDS011;13793;55.388;37.844;2023-04-01T05:08:03;38.97;;;21.90;;
26014;SDS011;13793;55.388;37.844;2023-04-01T05:10:33;42.83;;;22.37;;
26014;SDS011;13793;55.388;37.844;2023-04-01T05:13:04;39.97;;;23.37;;
26014;SDS011;13793;55.388;37.844;2023-04-01T05:15:34;61.77;;;34.10;;
26014;SDS011;13793;55.388;37.844;2023-04-01T05:18:06;71.47;;;39.77;;
26014;SDS011;13793;55.388;37.844;2023-04-01T05:20:36;72.20;;;40.33;;
26014;SDS011;13793;55.388;37.844;2023-04-01T05:23:07;54.43;;;31.70;;
26014;SDS011;13793;55.388;37.844;2023-04-01T05:25:38;42.50;;;25.73;;
26014;SDS011;13793;55.388;37.844;2023-04-01T05:28:09;32.27;;;18.13;;
26014;SDS011;13793;55.388;37.844;2023-04-01T05:30:40;30.77;;;17.87;;
26014;SDS011;13793;55.388;37.844;2023-04-01T05:33:25;31.43;;;17.57;;
26014;SDS011;13793;55.388;37.844;2023-04-01T05:35:56;25.53;;;15.10;;
26014;SDS011;13793;55.388;37.844;2023-04-01T05:38:29;26.67;;;16.43;;
26014;SDS011;13793;55.388;37.844;2023-04-01T05:40:59;27.43;;;17.13;;
26014;SDS011;13793;55.388;37.844;2023-04-01T05:43:31;28.53;;;17.20;;
26014;SDS011;13793;55.388;37.844;2023-04-01T05:46:04;23.70;;;15.90;;
26014;SDS011;13793;55.388;37.844;2023-04-01T05:48:37;26.00;;;16.37;;
26014;SDS011;13793;55.388;37.844;2023-04-01T05:51:12;25.77;;;16.03;;
26014;SDS011;13793;55.388;37.844;2023-04-01T05:53:44;25.73;;;16.00;;
26014;SDS011;13793;55.388;37.844;2023-04-01T05:56:14;24.10;;;15.60;;
26014;SDS011;13793;55.388;37.844;2023-04-01T05:58:48;26.37;;;16.10;;
26014;SDS011;13793;55.388;37.844;2023-04-01T06:01:20;26.67;;;16.37;;
26014;SDS011;13793;55.388;37.844;2023-04-01T06:03:51;24.20;;;15.27;;
26014;SDS011;13793;55.388;37.844;2023-04-01T06:06:25;24.47;;;16.27;;
26014;SDS011;13793;55.388;37.844;2023-04-01T06:09:23;25.63;;;16.33;;
26014;SDS011;13793;55.388;37.844;2023-04-01T06:15:03;22.95;;;15.18;;
26014;SDS011;13793;55.388;37.844;2023-04-01T06:26:27;22.07;;;13.30;;
26014;SDS011;13793;55.388;37.844;2023-04-01T06:29:25;19.80;;;12.63;;
26014;SDS011;13793;55.388;37.844;2023-04-01T06:32:04;22.60;;;14.47;;
26014;SDS011;13793;55.388;37.844;2023-04-01T06:46:31;24.53;;;16.57;;
26014;SDS011;13793;55.388;37.844;2023-04-01T06:52:41;23.37;;;15.00;;
26014;SDS011;13793;55.388;37.844;2023-04-01T06:55:35;21.50;;;14.67;;
26014;SDS011;13793;55.388;37.844;2023-04-01T06:58:46;22.87;;;14.13;;
26014;SDS011;13793;55.388;37.844;2023-04-01T07:01:27;22.00;;;15.37;;
26014;SDS011;13793;55.388;37.844;2023-04-01T07:06:36;22.00;;;14.90;;
26014;SDS011;13793;55.388;37.844;2023-04-01T07:09:16;22.40;;;14.47;;
26014;SDS011;13793;55.388;37.844;2023-04-01T07:12:31;25.17;;;16.60;;
26014;SDS011;13793;55.388;37.844;2023-04-01T07:15:18;23.63;;;14.97;;
26014;SDS011;13793;55.388;37.844;2023-04-01T07:17:47;23.23;;;15.40;;
26014;SDS011;13793;55.388;37.844;2023-04-01T07:20:22;21.00;;;14.13;;
26014;SDS011;13793;55.388;37.844;2023-04-01T07:23:00;18.97;;;13.50;;
26014;SDS011;13793;55.388;37.844;2023-04-01T07:25:38;23.10;;;14.70;;
26014;SDS011;13793;55.388;37.844;2023-04-01T07:28:14;18.00;;;13.40;;
26014;SDS011;13793;55.388;37.844;2023-04-01T07:33:44;17.75;;;11.73;;
26014;SDS011;13793;55.388;37.844;2023-04-01T07:36:24;17.20;;;11.13;;
26014;SDS011;13793;55.388;37.844;2023-04-01T07:39:01;16.83;;;10.90;;
26014;SDS011;13793;55.388;37.844;2023-04-01T07:41:49;17.17;;;11.40;;
26014;SDS011;13793;55.388;37.844;2023-04-01T07:44:22;15.83;;;10.90;;
26014;SDS011;13793;55.388;37.844;2023-04-01T07:50:01;15.20;;;9.97;;
26014;SDS011;13793;55.388;37.844;2023-04-01T07:52:40;15.53;;;9.80;;
26014;SDS011;13793;55.388;37.844;2023-04-01T07:55:23;13.37;;;8.63;;
26014;SDS011;13793;55.388;37.844;2023-04-01T07:58:04;13.88;;;9.60;;
26014;SDS011;13793;55.388;37.844;2023-04-01T08:00:42;13.62;;;9.25;;
26014;SDS011;13793;55.388;37.844;2023-04-01T08:08:45;19.80;;;10.23;;
26014;SDS011;13793;55.388;37.844;2023-04-01T08:11:46;12.13;;;8.00;;
26014;SDS011;13793;55.388;37.844;2023-04-01T08:14:48;11.90;;;8.10;;
26014;SDS011;13793;55.388;37.844;2023-04-01T08:23:15;13.08;;;8.33;;
26014;SDS011;13793;55.388;37.844;2023-04-01T08:25:52;11.95;;;8.55;;
26014;SDS011;13793;55.388;37.844;2023-04-01T08:28:32;11.20;;;7.33;;
26014;SDS011;13793;55.388;37.844;2023-04-01T08:31:18;12.30;;;9.38;;
26014;SDS011;13793;55.388;37.844;2023-04-01T08:33:50;12.60;;;8.77;;
26014;SDS011;13793;55.388;37.844;2023-04-01T08:36:24;12.73;;;8.50;;
26014;SDS011;13793;55.388;37.844;2023-04-01T08:39:07;11.83;;;7.97;;
26014;SDS011;13793;55.388;37.844;2023-04-01T08:42:10;12.00;;;7.22;;
26014;SDS011;13793;55.388;37.844;2023-04-01T08:51:10;11.97;;;7.42;;
26014;SDS011;13793;55.388;37.844;2023-04-01T09:01:46;10.60;;;7.90;;
26014;SDS011;13793;55.388;37.844;2023-04-01T09:04:23;11.53;;;8.05;;
26014;SDS011;13793;55.388;37.844;2023-04-01T09:12:34;11.88;;;7.80;;
26014;SDS011;13793;55.388;37.844;2023-04-01T09:21:29;11.45;;;6.97;;
26014;SDS011;13793;55.388;37.844;2023-04-01T09:30:06;9.13;;;6.30;;
26014;SDS011;13793;55.388;37.844;2023-04-01T09:44:15;11.03;;;7.20;;
26014;SDS011;13793;55.388;37.844;2023-04-01T09:53:07;11.70;;;7.25;;
26014;SDS011;13793;55.388;37.844;2023-04-01T09:56:01;11.75;;;8.58;;
26014;SDS011;13793;55.388;37.844;2023-04-01T09:59:08;11.28;;;8.03;;
26014;SDS011;13793;55.388;37.844;2023-04-01T10:05:13;11.65;;;7.75;;
26014;SDS011;13793;55.388;37.844;2023-04-01T10:22:48;9.48;;;7.47;;
26014;SDS011;13793;55.388;37.844;2023-04-01T10:25:42;9.73;;;6.97;;
26014;SDS011;13793;55.388;37.844;2023-04-01T10:31:11;9.13;;;7.17;;
26014;SDS011;13793;55.388;37.844;2023-04-01T10:36:41;10.85;;;8.13;;
26014;SDS011;13793;55.388;37.844;2023-04-01T10:39:35;11.20;;;8.18;;
26014;SDS011;13793;55.388;37.844;2023-04-01T10:54:07;11.18;;;8.50;;
26014;SDS011;13793;55.388;37.844;2023-04-01T10:57:07;12.73;;;8.93;;
26014;SDS011;13793;55.388;37.844;2023-04-01T11:09:10;11.53;;;8.80;;
26014;SDS011;13793;55.388;37.844;2023-04-01T11:11:47;9.65;;;7.15;;
26014;SDS011;13793;55.388;37.844;2023-04-01T11:23:04;11.73;;;7.87;;
26014;SDS011;13793;55.388;37.844;2023-04-01T11:29:01;10.53;;;7.08;;
26014;SDS011;13793;55.388;37.844;2023-04-01T11:34:24;9.30;;;7.50;;
26014;SDS011;13793;55.388;37.844;2023-04-01T11:37:16;10.35;;;7.37;;
26014;SDS011;13793;55.388;37.844;2023-04-01T11:43:02;10.40;;;7.15;;
26014;SDS011;13793;55.388;37.844;2023-04-01T11:49:01;12.90;;;7.78;;
26014;SDS011;13793;55.388;37.844;2023-04-01T11:51:43;12.98;;;8.48;;
26014;SDS011;13793;55.388;37.844;2023-04-01T11:57:13;16.60;;;10.37;;
26014;SDS011;13793;55.388;37.844;2023-04-01T11:59:56;12.27;;;8.20;;
26014;SDS011;13793;55.388;37.844;2023-04-01T12:02:45;11.30;;;7.33;;
26014;SDS011;13793;55.388;37.844;2023-04-01T12:08:45;11.07;;;8.07;;
26014;SDS011;13793;55.388;37.844;2023-04-01T12:11:17;10.57;;;7.47;;
26014;SDS011;13793;55.388;37.844;2023-04-01T12:13:52;9.47;;;6.50;;
26014;SDS011;13793;55.388;37.844;2023-04-01T12:21:37;8.73;;;7.43;;
26014;SDS011;13793;55.388;37.844;2023-04-01T12:29:40;9.77;;;6.87;;
26014;SDS011;13793;55.388;37.844;2023-04-01T12:42:59;10.38;;;7.15;;
26014;SDS011;13793;55.388;37.844;2023-04-01T12:54:17;9.13;;;6.60;;
26014;SDS011;13793;55.388;37.844;2023-04-01T12:56:51;9.00;;;6.40;;
26014;SDS011;13793;55.388;37.844;2023-04-01T13:02:37;8.77;;;6.10;;
26014;SDS011;13793;55.388;37.844;2023-04-01T13:07:53;8.80;;;6.80;;
26014;SDS011;13793;55.388;37.844;2023-04-01T13:16:13;13.70;;;8.67;;
26014;SDS011;13793;55.388;37.844;2023-04-01T13:18:58;13.10;;;8.40;;
26014;SDS011;13793;55.388;37.844;2023-04-01T13:21:42;11.60;;;9.17;;
26014;SDS011;13793;55.388;37.844;2023-04-01T13:24:31;12.83;;;8.13;;
26014;SDS011;13793;55.388;37.844;2023-04-01T13:33:25;13.97;;;9.90;;
26014;SDS011;13793;55.388;37.844;2023-04-01T13:36:03;16.20;;;11.20;;
26014;SDS011;13793;55.388;37.844;2023-04-01T13:41:52;16.63;;;12.27;;
26014;SDS011;13793;55.388;37.844;2023-04-01T13:44:45;14.57;;;11.60;;
26014;SDS011;13793;55.388;37.844;2023-04-01T13:47:16;16.50;;;12.57;;
26014;SDS011;13793;55.388;37.844;2023-04-01T13:52:57;18.20;;;12.93;;
26014;SDS011;13793;55.388;37.844;2023-04-01T13:55:49;18.40;;;12.43;;
26014;SDS011;13793;55.388;37.844;2023-04-01T14:04:17;18.23;;;12.67;;
26014;SDS011;13793;55.388;37.844;2023-04-01T14:06:49;18.27;;;13.47;;
26014;SDS011;13793;55.388;37.844;2023-04-01T14:12:47;20.03;;;15.27;;
26014;SDS011;13793;55.388;37.844;2023-04-01T14:18:10;20.73;;;16.33;;
26014;SDS011;13793;55.388;37.844;2023-04-01T14:23:47;21.53;;;16.83;;
26014;SDS011;13793;55.388;37.844;2023-04-01T14:26:22;23.13;;;17.23;;
26014;SDS011;13793;55.388;37.844;2023-04-01T14:32:03;22.97;;;16.93;;
26014;SDS011;13793;55.388;37.844;2023-04-01T14:40:40;22.37;;;17.10;;
26014;SDS011;13793;55.388;37.844;2023-04-01T14:48:51;20.10;;;15.23;;
26014;SDS011;13793;55.388;37.844;2023-04-01T14:51:39;20.07;;;16.27;;
26014;SDS011;13793;55.388;37.844;2023-04-01T14:57:11;19.77;;;15.63;;
26014;SDS011;13793;55.388;37.844;2023-04-01T15:05:55;17.40;;;14.33;;
26014;SDS011;13793;55.388;37.844;2023-04-01T15:08:27;19.23;;;14.50;;
26014;SDS011;13793;55.388;37.844;2023-04-01T15:11:01;22.83;;;15.67;;
26014;SDS011;13793;55.388;37.844;2023-04-01T15:16:54;19.47;;;14.83;;
26014;SDS011;13793;55.388;37.844;2023-04-01T15:19:31;18.73;;;15.07;;
26014;SDS011;13793;55.388;37.844;2023-04-01T15:22:16;19.77;;;14.50;;
26014;SDS011;13793;55.388;37.844;2023-04-01T15:51:41;14.17;;;11.27;;
26014;SDS011;13793;55.388;37.844;2023-04-01T16:02:45;18.73;;;13.23;;
26014;SDS011;13793;55.388;37.844;2023-04-01T16:21:36;19.50;;;14.10;;
26014;SDS011;13793;55.388;37.844;2023-04-01T16:32:36;28.53;;;17.50;;
26014;SDS011;13793;55.388;37.844;2023-04-01T16:35:41;26.93;;;14.77;;
26014;SDS011;13793;55.388;37.844;2023-04-01T16:38:33;27.00;;;18.00;;
26014;SDS011;13793;55.388;37.844;2023-04-01T16:43:51;24.97;;;16.60;;
26014;SDS011;13793;55.388;37.844;2023-04-01T16:49:24;21.33;;;15.63;;
26014;SDS011;13793;55.388;37.844;2023-04-01T16:55:02;24.10;;;16.37;;
26014;SDS011;13793;55.388;37.844;2023-04-01T16:57:43;22.07;;;15.90;;
26014;SDS011;13793;55.388;37.844;2023-04-01T17:00:26;22.80;;;16.27;;
26014;SDS011;13793;55.388;37.844;2023-04-01T17:03:15;22.20;;;17.13;;
26014;SDS011;13793;55.388;37.844;2023-04-01T17:20:14;29.90;;;19.70;;
26014;SDS011;13793;55.388;37.844;2023-04-01T17:28:05;31.77;;;22.10;;
26014;SDS011;13793;55.388;37.844;2023-04-01T17:33:18;36.13;;;24.40;;
26014;SDS011;13793;55.388;37.844;2023-04-01T17:35:50;35.77;;;24.80;;
26014;SDS011;13793;55.388;37.844;2023-04-01T17:41:36;33.07;;;24.13;;
26014;SDS011;13793;55.388;37.844;2023-04-01T17:44:21;29.97;;;22.30;;
26014;SDS011;13793;55.388;37.844;2023-04-01T17:52:56;33.93;;;23.80;;
26014;SDS011;13793;55.388;37.844;2023-04-01T18:04:29;33.43;;;22.03;;
26014;SDS011;13793;55.388;37.844;2023-04-01T18:07:06;28.40;;;20.10;;
26014;SDS011;13793;55.388;37.844;2023-04-01T18:21:43;31.10;;;21.37;;
26014;SDS011;13793;55.388;37.844;2023-04-01T18:27:15;30.77;;;21.37;;
26014;SDS011;13793;55.388;37.844;2023-04-01T18:30:00;30.30;;;20.63;;
26014;SDS011;13793;55.388;37.844;2023-04-01T18:35:24;29.97;;;19.27;;
26014;SDS011;13793;55.388;37.844;2023-04-01T18:43:34;29.23;;;20.53;;
26014;SDS011;13793;55.388;37.844;2023-04-01T18:51:49;27.10;;;19.30;;
26014;SDS011;13793;55.388;37.844;2023-04-01T18:54:42;28.70;;;19.23;;
26014;SDS011;13793;55.388;37.844;2023-04-01T18:57:15;30.70;;;20.90;;
26014;SDS011;13793;55.388;37.844;2023-04-01T19:02:34;26.70;;;19.10;;
26014;SDS011;13793;55.388;37.844;2023-04-01T19:07:46;27.70;;;19.67;;
26014;SDS011;13793;55.388;37.844;2023-04-01T19:27:14;28.60;;;19.80;;
26014;SDS011;13793;55.388;37.844;2023-04-01T19:29:48;29.18;;;18.35;;
26014;SDS011;13793;55.388;37.844;2023-04-01T19:32:43;27.10;;;18.73;;
26014;SDS011;13793;55.388;37.844;2023-04-01T19:35:19;29.27;;;19.43;;
26014;SDS011;13793;55.388;37.844;2023-04-01T19:38:03;28.13;;;19.40;;
26014;SDS011;13793;55.388;37.844;2023-04-01T19:40:42;25.70;;;17.70;;
26014;SDS011;13793;55.388;37.844;2023-04-01T19:45:57;25.63;;;18.27;;
26014;SDS011;13793;55.388;37.844;2023-04-01T19:51:31;25.83;;;17.60;;
26014;SDS011;13793;55.388;37.844;2023-04-01T19:54:24;29.45;;;18.20;;
26014;SDS011;13793;55.388;37.844;2023-04-01T19:56:56;24.93;;;17.00;;
26014;SDS011;13793;55.388;37.844;2023-04-01T20:08:11;27.83;;;18.07;;
26014;SDS011;13793;55.388;37.844;2023-04-01T20:11:01;32.13;;;19.73;;
26014;SDS011;13793;55.388;37.844;2023-04-01T20:16:46;31.27;;;20.00;;
26014;SDS011;13793;55.388;37.844;2023-04-01T20:19:10;28.57;;;19.20;;
26014;SDS011;13793;55.388;37.844;2023-04-01T20:24:17;28.23;;;18.50;;
26014;SDS011;13793;55.388;37.844;2023-04-01T20:26:51;29.80;;;20.03;;
26014;SDS011;13793;55.388;37.844;2023-04-01T20:32:52;30.77;;;20.60;;
26014;SDS011;13793;55.388;37.844;2023-04-01T20:35:06;29.80;;;19.23;;
26014;SDS011;13793;55.388;37.844;2023-04-01T20:45:59;30.63;;;19.57;;
26014;SDS011;13793;55.388;37.844;2023-04-01T20:48:40;27.47;;;18.97;;
26014;SDS011;13793;55.388;37.844;2023-04-01T20:51:29;30.70;;;20.00;;
26014;SDS011;13793;55.388;37.844;2023-04-01T20:57:00;34.30;;;21.60;;
26014;SDS011;13793;55.388;37.844;2023-04-01T21:03:03;30.40;;;20.10;;
26014;SDS011;13793;55.388;37.844;2023-04-01T21:05:51;31.10;;;21.27;;
26014;SDS011;13793;55.388;37.844;2023-04-01T21:11:13;32.47;;;20.93;;
26014;SDS011;13793;55.388;37.844;2023-04-01T21:16:26;35.20;;;22.27;;
26014;SDS011;13793;55.388;37.844;2023-04-01T21:19:13;32.70;;;21.50;;
26014;SDS011;13793;55.388;37.844;2023-04-01T21:52:29;46.47;;;27.23;;
26014;SDS011;13793;55.388;37.844;2023-04-01T21:58:02;44.70;;;28.63;;
26014;SDS011;13793;55.388;37.844;2023-04-01T22:00:37;49.20;;;29.30;;
26014;SDS011;13793;55.388;37.844;2023-04-01T22:03:21;48.90;;;30.63;;
26014;SDS011;13793;55.388;37.844;2023-04-01T22:17:22;54.20;;;31.63;;
26014;SDS011;13793;55.388;37.844;2023-04-01T22:20:03;55.27;;;32.07;;
26014;SDS011;13793;55.388;37.844;2023-04-01T22:25:42;58.27;;;32.57;;
26014;SDS011;13793;55.388;37.844;2023-04-01T22:28:18;56.90;;;32.70;;
26014;SDS011;13793;55.388;37.844;2023-04-01T22:30:54;61.53;;;33.37;;
26014;SDS011;13793;55.388;37.844;2023-04-01T22:33:30;60.23;;;32.03;;
26014;SDS011;13793;55.388;37.844;2023-04-01T22:36:09;55.28;;;32.48;;
26014;SDS011;13793;55.388;37.844;2023-04-01T22:47:19;52.80;;;30.80;;
26014;SDS011;13793;55.388;37.844;2023-04-01T22:49:52;59.27;;;32.27;;
26014;SDS011;13793;55.388;37.844;2023-04-01T22:52:43;65.40;;;32.77;;
26014;SDS011;13793;55.388;37.844;2023-04-01T22:55:19;62.17;;;32.50;;
26014;SDS011;13793;55.388;37.844;2023-04-01T22:58:05;58.67;;;31.87;;
26014;SDS011;13793;55.388;37.844;2023-04-01T23:00:55;67.87;;;33.47;;
26014;SDS011;13793;55.388;37.844;2023-04-01T23:05:54;62.83;;;33.13;;
26014;SDS011;13793;55.388;37.844;2023-04-01T23:08:49;63.27;;;33.17;;
26014;SDS011;13793;55.388;37.844;2023-04-01T23:14:28;63.77;;;33.83;;
26014;SDS011;13793;55.388;37.844;2023-04-01T23:25:35;63.53;;;33.53;;
26014;SDS011;13793;55.388;37.844;2023-04-01T23:28:17;65.37;;;32.73;;
26014;SDS011;13793;55.388;37.844;2023-04-01T23:30:46;66.23;;;32.40;;
26014;SDS011;13793;55.388;37.844;2023-04-01T23:35:57;63.23;;;33.73;;
26014;SDS011;13793;55.388;37.844;2023-04-01T23:38:40;71.07;;;34.70;;
26014;SDS011;13793;55.388;37.844;2023-04-01T23:41:22;62.30;;;31.83;;
26014;SDS011;13793;55.388;37.844;2023-04-01T23:44:04;63.17;;;33.30;;
26014;SDS011;13793;55.388;37.844;2023-04-01T23:46:37;73.20;;;34.53;;
26014;SDS011;13793;55.388;37.844;2023-04-01T23:49:11;68.03;;;34.43;;
26014;SDS011;13793;55.388;37.844;2023-04-01T23:52:03;63.03;;;32.50;;
